sensor_id;sensor_type;location;lat;lon;timestamp;pressure;altitude;pressure_sealevel;temperature;humidity
21803;BME280;18591;47.080;22.214;2023-01-15T00:01:01;100138.38;;;8.64;64.96
21803;BME280;18591;47.080;22.214;2023-01-15T00:03:03;100140.19;;;8.63;64.85
21803;BME280;18591;47.080;22.214;2023-01-15T00:05:06;100137.53;;;8.62;64.48
21803;BME280;18591;47.080;22.214;2023-01-15T00:07:08;100141.13;;;8.61;64.73
21803;BME280;18591;47.080;22.214;2023-01-15T00:09:14;100133.97;;;8.60;64.37
21803;BME280;18591;47.080;22.214;2023-01-15T00:11:18;100144.59;;;8.66;64.52
21803;BME280;18591;47.080;22.214;2023-01-15T00:13:20;100133.13;;;8.58;64.68
21803;BME280;18591;47.080;22.214;2023-01-15T00:15:22;100134.91;;;8.59;64.45
21803;BME280;18591;47.080;22.214;2023-01-15T00:17:24;100132.22;;;8.59;64.18
21803;BME280;18591;47.080;22.214;2023-01-15T00:19:27;100132.22;;;8.59;64.34
21803;BME280;18591;47.080;22.214;2023-01-15T00:21:29;100135.88;;;8.55;64.56
21803;BME280;18591;47.080;22.214;2023-01-15T00:23:32;100132.16;;;8.62;64.29
21803;BME280;18591;47.080;22.214;2023-01-15T00:25:56;100135.06;;;8.51;64.01
21803;BME280;18591;47.080;22.214;2023-01-15T00:28:17;100132.41;;;8.49;64.12
21803;BME280;18591;47.080;22.214;2023-01-15T00:30:19;100131.53;;;8.47;64.41
21803;BME280;18591;47.080;22.214;2023-01-15T00:32:22;100135.13;;;8.48;64.22
21803;BME280;18591;47.080;22.214;2023-01-15T00:34:25;100125.25;;;8.50;64.07
21803;BME280;18591;47.080;22.214;2023-01-15T00:36:28;100126.19;;;8.47;64.00
21803;BME280;18591;47.080;22.214;2023-01-15T00:38:30;100129.81;;;8.45;64.29
21803;BME280;18591;47.080;22.214;2023-01-15T00:40:32;100134.22;;;8.49;64.08
21803;BME280;18591;47.080;22.214;2023-01-15T00:42:39;100131.53;;;8.47;64.31
21803;BME280;18591;47.080;22.214;2023-01-15T00:44:42;100132.44;;;8.48;64.10
21803;BME280;18591;47.080;22.214;2023-01-15T00:46:45;100126.25;;;8.46;64.20
21803;BME280;18591;47.080;22.214;2023-01-15T00:48:47;100129.81;;;8.45;64.22
21803;BME280;18591;47.080;22.214;2023-01-15T00:50:50;100127.03;;;8.51;64.04
21803;BME280;18591;47.080;22.214;2023-01-15T00:52:52;100127.97;;;8.48;64.28
21803;BME280;18591;47.080;22.214;2023-01-15T00:54:54;100128.03;;;8.45;63.77
21803;BME280;18591;47.080;22.214;2023-01-15T00:56:56;100116.41;;;8.46;64.35
21803;BME280;18591;47.080;22.214;2023-01-15T00:59:01;100121.84;;;8.42;64.05
21803;BME280;18591;47.080;22.214;2023-01-15T01:01:05;100116.41;;;8.46;64.10
21803;BME280;18591;47.080;22.214;2023-01-15T01:03:07;100118.13;;;8.50;63.66
21803;BME280;18591;47.080;22.214;2023-01-15T01:05:12;100105.59;;;8.51;63.66
21803;BME280;18591;47.080;22.214;2023-01-15T01:07:16;100103.81;;;8.52;63.88
21803;BME280;18591;47.080;22.214;2023-01-15T01:09:19;100101.97;;;8.54;63.52
21803;BME280;18591;47.080;22.214;2023-01-15T01:11:23;100102.00;;;8.52;63.69
21803;BME280;18591;47.080;22.214;2023-01-15T01:13:27;100093.94;;;8.54;63.57
21803;BME280;18591;47.080;22.214;2023-01-15T01:15:32;100098.31;;;8.58;62.87
21803;BME280;18591;47.080;22.214;2023-01-15T01:17:37;100100.16;;;8.56;62.60
21803;BME280;18591;47.080;22.214;2023-01-15T01:19:39;100094.84;;;8.53;62.81
21803;BME280;18591;47.080;22.214;2023-01-15T01:21:45;100094.09;;;8.46;62.79
21803;BME280;18591;47.080;22.214;2023-01-15T01:23:47;100091.38;;;8.47;63.00
21803;BME280;18591;47.080;22.214;2023-01-15T01:25:50;100082.63;;;8.39;63.13
21803;BME280;18591;47.080;22.214;2023-01-15T01:27:56;100089.72;;;8.42;63.06
21803;BME280;18591;47.080;22.214;2023-01-15T01:30:00;100079.94;;;8.39;63.18
21803;BME280;18591;47.080;22.214;2023-01-15T01:32:03;100081.72;;;8.40;63.43
21803;BME280;18591;47.080;22.214;2023-01-15T01:34:05;100076.38;;;8.37;63.48
21803;BME280;18591;47.080;22.214;2023-01-15T01:36:07;100067.56;;;8.32;63.41
21803;BME280;18591;47.080;22.214;2023-01-15T01:38:09;100069.28;;;8.36;63.31
21803;BME280;18591;47.080;22.214;2023-01-15T01:40:13;100059.53;;;8.32;63.58
21803;BME280;18591;47.080;22.214;2023-01-15T01:42:16;100061.31;;;8.33;63.56
21803;BME280;18591;47.080;22.214;2023-01-15T01:46:35;100056.97;;;8.27;63.91
21803;BME280;18591;47.080;22.214;2023-01-15T01:48:37;100053.38;;;8.28;63.83
21803;BME280;18591;47.080;22.214;2023-01-15T01:50:40;100052.50;;;8.26;63.58
21803;BME280;18591;47.080;22.214;2023-01-15T01:52:48;100051.66;;;8.24;63.75
21803;BME280;18591;47.080;22.214;2023-01-15T01:54:52;100043.59;;;8.27;63.57
21803;BME280;18591;47.080;22.214;2023-01-15T01:56:55;100048.16;;;8.22;63.72
21803;BME280;18591;47.080;22.214;2023-01-15T01:58:57;100048.03;;;8.27;63.51
21803;BME280;18591;47.080;22.214;2023-01-15T02:01:00;100046.34;;;8.23;63.27
21803;BME280;18591;47.080;22.214;2023-01-15T02:03:05;100043.75;;;8.20;63.19
21803;BME280;18591;47.080;22.214;2023-01-15T02:05:10;100058.00;;;8.20;63.18
21803;BME280;18591;47.080;22.214;2023-01-15T02:07:15;100047.31;;;8.19;63.33
21803;BME280;18591;47.080;22.214;2023-01-15T02:09:18;100042.16;;;8.10;63.51
21803;BME280;18591;47.080;22.214;2023-01-15T02:11:22;100048.25;;;8.16;63.18
21803;BME280;18591;47.080;22.214;2023-01-15T02:15:46;100046.59;;;8.12;63.24
21803;BME280;18591;47.080;22.214;2023-01-15T02:17:55;100045.66;;;8.13;62.92
21803;BME280;18591;47.080;22.214;2023-01-15T02:20:36;100051.06;;;8.10;63.27
21803;BME280;18591;47.080;22.214;2023-01-15T02:25:17;100046.66;;;8.07;63.23
21803;BME280;18591;47.080;22.214;2023-01-15T02:27:22;100041.41;;;8.03;63.17
21803;BME280;18591;47.080;22.214;2023-01-15T02:31:59;100049.56;;;7.97;63.64
21803;BME280;18591;47.080;22.214;2023-01-15T02:34:10;100054.78;;;8.01;63.44
21803;BME280;18591;47.080;22.214;2023-01-15T02:36:18;100059.25;;;8.02;63.41
21803;BME280;18591;47.080;22.214;2023-01-15T02:38:24;100056.50;;;8.05;63.36
21803;BME280;18591;47.080;22.214;2023-01-15T02:40:55;100057.59;;;7.95;63.26
21803;BME280;18591;47.080;22.214;2023-01-15T02:43:00;100068.16;;;8.01;63.45
21803;BME280;18591;47.080;22.214;2023-01-15T02:45:05;100062.97;;;7.94;63.78
21803;BME280;18591;47.080;22.214;2023-01-15T02:47:09;100062.06;;;7.95;63.85
21803;BME280;18591;47.080;22.214;2023-01-15T02:49:16;100068.38;;;7.91;64.15
21803;BME280;18591;47.080;22.214;2023-01-15T02:51:23;100063.88;;;7.93;63.88
21803;BME280;18591;47.080;22.214;2023-01-15T02:53:29;100062.94;;;7.97;63.68
21803;BME280;18591;47.080;22.214;2023-01-15T02:55:37;100068.16;;;8.01;63.67
21803;BME280;18591;47.080;22.214;2023-01-15T02:57:45;100067.22;;;8.04;63.64
21803;BME280;18591;47.080;22.214;2023-01-15T02:59:51;100067.13;;;8.10;63.12
21803;BME280;18591;47.080;22.214;2023-01-15T03:01:59;100067.22;;;8.05;63.41
21803;BME280;18591;47.080;22.214;2023-01-15T03:04:14;100058.47;;;7.96;63.51
21803;BME280;18591;47.080;22.214;2023-01-15T03:06:26;100061.09;;;7.99;63.82
21803;BME280;18591;47.080;22.214;2023-01-15T03:08:33;100059.31;;;7.99;63.54
21803;BME280;18591;47.080;22.214;2023-01-15T03:10:51;100055.84;;;7.94;63.86
21803;BME280;18591;47.080;22.214;2023-01-15T03:13:01;100053.97;;;7.99;63.49
21803;BME280;18591;47.080;22.214;2023-01-15T03:15:18;100052.22;;;7.97;63.78
21803;BME280;18591;47.080;22.214;2023-01-15T03:17:55;100060.28;;;7.95;63.52
21803;BME280;18591;47.080;22.214;2023-01-15T03:20:07;100053.22;;;7.91;63.92
21803;BME280;18591;47.080;22.214;2023-01-15T03:22:29;100056.94;;;7.82;64.04
21803;BME280;18591;47.080;22.214;2023-01-15T03:26:42;100053.25;;;7.90;64.33
21803;BME280;18591;47.080;22.214;2023-01-15T03:28:46;100048.66;;;7.96;64.10
21803;BME280;18591;47.080;22.214;2023-01-15T03:30:49;100048.66;;;7.96;64.00
21803;BME280;18591;47.080;22.214;2023-01-15T03:32:53;100041.53;;;7.97;64.03
21803;BME280;18591;47.080;22.214;2023-01-15T03:34:56;100045.09;;;7.96;63.90
21803;BME280;18591;47.080;22.214;2023-01-15T03:36:58;100029.03;;;7.96;64.12
21803;BME280;18591;47.080;22.214;2023-01-15T03:39:02;100037.13;;;7.94;64.05
21803;BME280;18591;47.080;22.214;2023-01-15T03:45:53;100041.63;;;7.91;64.24
21803;BME280;18591;47.080;22.214;2023-01-15T03:50:39;100035.31;;;7.95;63.86
21803;BME280;18591;47.080;22.214;2023-01-15T03:52:54;100022.84;;;7.94;63.91
21803;BME280;18591;47.080;22.214;2023-01-15T03:55:18;100025.56;;;7.91;63.79
21803;BME280;18591;47.080;22.214;2023-01-15T03:57:42;100030.97;;;7.89;63.49
21803;BME280;18591;47.080;22.214;2023-01-15T03:59:52;100024.78;;;7.85;63.41
21803;BME280;18591;47.080;22.214;2023-01-15T04:01:55;100026.50;;;7.90;63.61
21803;BME280;18591;47.080;22.214;2023-01-15T04:04:01;100030.19;;;7.84;63.45
21803;BME280;18591;47.080;22.214;2023-01-15T04:06:04;100026.56;;;7.87;63.33
21803;BME280;18591;47.080;22.214;2023-01-15T04:08:08;100020.34;;;7.84;63.41
21803;BME280;18591;47.080;22.214;2023-01-15T04:10:12;100015.00;;;7.84;63.08
21803;BME280;18591;47.080;22.214;2023-01-15T04:12:15;100028.53;;;7.75;63.32
21803;BME280;18591;47.080;22.214;2023-01-15T04:14:20;100021.31;;;7.80;63.51
21803;BME280;18591;47.080;22.214;2023-01-15T04:16:29;100025.78;;;7.81;63.33
21803;BME280;18591;47.080;22.214;2023-01-15T04:18:32;100021.38;;;7.79;63.42
21803;BME280;18591;47.080;22.214;2023-01-15T04:20:34;100016.88;;;7.81;63.77
21803;BME280;18591;47.080;22.214;2023-01-15T04:22:36;100019.56;;;7.81;63.72
21803;BME280;18591;47.080;22.214;2023-01-15T04:24:39;100012.31;;;7.86;63.38
21803;BME280;18591;47.080;22.214;2023-01-15T04:26:41;100015.94;;;7.82;63.37
21803;BME280;18591;47.080;22.214;2023-01-15T04:28:43;100021.28;;;7.83;63.27
21803;BME280;18591;47.080;22.214;2023-01-15T04:30:45;100014.22;;;7.79;63.40
21803;BME280;18591;47.080;22.214;2023-01-15T04:32:48;100016.09;;;7.74;63.37
21803;BME280;18591;47.080;22.214;2023-01-15T04:34:50;100012.47;;;7.77;63.65
21803;BME280;18591;47.080;22.214;2023-01-15T04:36:53;100014.22;;;7.79;63.25
21803;BME280;18591;47.080;22.214;2023-01-15T04:38:55;100016.09;;;7.76;63.57
21803;BME280;18591;47.080;22.214;2023-01-15T04:41:01;100006.22;;;7.78;63.17
21803;BME280;18591;47.080;22.214;2023-01-15T04:43:21;100002.72;;;7.74;63.48
21803;BME280;18591;47.080;22.214;2023-01-15T04:45:45;100007.16;;;7.75;63.22
21803;BME280;18591;47.080;22.214;2023-01-15T04:47:47;100012.41;;;7.80;63.23
21803;BME280;18591;47.080;22.214;2023-01-15T04:49:49;100009.00;;;7.73;63.26
21803;BME280;18591;47.080;22.214;2023-01-15T04:51:51;100009.00;;;7.73;63.46
21803;BME280;18591;47.080;22.214;2023-01-15T04:53:53;100012.50;;;7.75;63.28
21803;BME280;18591;47.080;22.214;2023-01-15T04:56:03;100003.66;;;7.73;63.64
21803;BME280;18591;47.080;22.214;2023-01-15T04:58:06;100012.47;;;7.78;63.11
21803;BME280;18591;47.080;22.214;2023-01-15T05:00:08;100014.22;;;7.78;63.21
21803;BME280;18591;47.080;22.214;2023-01-15T05:02:10;100003.44;;;7.82;63.24
21803;BME280;18591;47.080;22.214;2023-01-15T05:04:15;100002.81;;;7.70;63.53
21803;BME280;18591;47.080;22.214;2023-01-15T05:06:18;100007.28;;;7.68;63.67
21803;BME280;18591;47.080;22.214;2023-01-15T05:08:20;100008.22;;;7.67;64.03
21803;BME280;18591;47.080;22.214;2023-01-15T05:10:22;100015.31;;;7.68;64.39
21803;BME280;18591;47.080;22.214;2023-01-15T05:12:24;100000.13;;;7.71;64.17
21803;BME280;18591;47.080;22.214;2023-01-15T05:14:27;100008.13;;;7.71;64.24
21803;BME280;18591;47.080;22.214;2023-01-15T05:16:30;100009.00;;;7.72;64.33
21803;BME280;18591;47.080;22.214;2023-01-15T05:18:32;100004.53;;;7.74;64.32
21803;BME280;18591;47.080;22.214;2023-01-15T05:20:37;100008.00;;;7.79;64.18
21803;BME280;18591;47.080;22.214;2023-01-15T05:22:39;100011.59;;;7.76;64.21
21803;BME280;18591;47.080;22.214;2023-01-15T05:24:41;100009.75;;;7.80;64.11
21803;BME280;18591;47.080;22.214;2023-01-15T05:26:43;100013.34;;;7.79;64.21
21803;BME280;18591;47.080;22.214;2023-01-15T05:28:46;100004.47;;;7.75;64.45
21803;BME280;18591;47.080;22.214;2023-01-15T05:30:48;100004.53;;;7.72;65.02
21803;BME280;18591;47.080;22.214;2023-01-15T05:32:50;100005.38;;;7.76;65.17
21803;BME280;18591;47.080;22.214;2023-01-15T05:34:52;99997.38;;;7.74;65.15
21803;BME280;18591;47.080;22.214;2023-01-15T05:36:55;99996.59;;;7.69;65.27
21803;BME280;18591;47.080;22.214;2023-01-15T05:38:58;99998.53;;;7.61;65.23
21803;BME280;18591;47.080;22.214;2023-01-15T05:41:08;99999.69;;;7.46;65.10
21803;BME280;18591;47.080;22.214;2023-01-15T05:43:29;100003.38;;;7.39;64.98
21803;BME280;18591;47.080;22.214;2023-01-15T05:45:33;100004.25;;;7.39;65.10
21803;BME280;18591;47.080;22.214;2023-01-15T05:47:36;100002.44;;;7.41;65.11
21803;BME280;18591;47.080;22.214;2023-01-15T05:49:38;100001.63;;;7.36;64.70
21803;BME280;18591;47.080;22.214;2023-01-15T05:51:41;100002.78;;;7.22;65.08
21803;BME280;18591;47.080;22.214;2023-01-15T05:53:43;99997.34;;;7.28;64.65
21803;BME280;18591;47.080;22.214;2023-01-15T05:55:45;99994.94;;;7.11;65.52
21803;BME280;18591;47.080;22.214;2023-01-15T05:57:47;99989.66;;;7.09;65.66
21803;BME280;18591;47.080;22.214;2023-01-15T05:59:49;99996.84;;;7.04;65.91
21803;BME280;18591;47.080;22.214;2023-01-15T06:01:54;99995.06;;;7.03;65.97
21803;BME280;18591;47.080;22.214;2023-01-15T06:03:58;99999.47;;;7.07;65.38
21803;BME280;18591;47.080;22.214;2023-01-15T06:06:01;99997.78;;;7.02;66.19
21803;BME280;18591;47.080;22.214;2023-01-15T06:08:03;99999.53;;;7.03;65.77
21803;BME280;18591;47.080;22.214;2023-01-15T06:10:06;99995.25;;;6.92;65.92
21803;BME280;18591;47.080;22.214;2023-01-15T06:12:08;99988.97;;;6.95;65.52
21803;BME280;18591;47.080;22.214;2023-01-15T06:14:11;99983.81;;;6.83;65.68
21803;BME280;18591;47.080;22.214;2023-01-15T06:16:13;99983.88;;;6.78;65.95
21803;BME280;18591;47.080;22.214;2023-01-15T06:18:15;99976.72;;;6.82;65.57
21803;BME280;18591;47.080;22.214;2023-01-15T06:20:17;99979.28;;;6.88;65.70
21803;BME280;18591;47.080;22.214;2023-01-15T06:22:19;99975.97;;;6.73;65.77
21803;BME280;18591;47.080;22.214;2023-01-15T06:24:21;99977.75;;;6.73;65.87
21803;BME280;18591;47.080;22.214;2023-01-15T06:26:23;99980.34;;;6.78;65.80
21803;BME280;18591;47.080;22.214;2023-01-15T06:28:25;99974.19;;;6.74;65.59
21803;BME280;18591;47.080;22.214;2023-01-15T06:30:27;99971.41;;;6.80;65.71
21803;BME280;18591;47.080;22.214;2023-01-15T06:32:29;99968.91;;;6.71;65.85
21803;BME280;18591;47.080;22.214;2023-01-15T06:34:31;99970.59;;;6.76;65.55
21803;BME280;18591;47.080;22.214;2023-01-15T06:36:33;99970.59;;;6.76;65.15
21803;BME280;18591;47.080;22.214;2023-01-15T06:38:36;99966.25;;;6.69;65.47
21803;BME280;18591;47.080;22.214;2023-01-15T06:40:38;99965.38;;;6.67;65.27
21803;BME280;18591;47.080;22.214;2023-01-15T06:42:40;99963.84;;;6.52;65.73
21803;BME280;18591;47.080;22.214;2023-01-15T06:45:01;99960.44;;;6.41;66.09
21803;BME280;18591;47.080;22.214;2023-01-15T06:47:22;99961.19;;;6.51;65.92
21803;BME280;18591;47.080;22.214;2023-01-15T06:49:25;99955.84;;;6.51;65.47
21803;BME280;18591;47.080;22.214;2023-01-15T06:51:27;99956.72;;;6.51;65.57
21803;BME280;18591;47.080;22.214;2023-01-15T06:53:31;99947.00;;;6.47;65.57
21803;BME280;18591;47.080;22.214;2023-01-15T06:55:33;99939.00;;;6.47;65.33
21803;BME280;18591;47.080;22.214;2023-01-15T06:57:37;99942.72;;;6.37;65.04
21803;BME280;18591;47.080;22.214;2023-01-15T06:59:40;99938.19;;;6.41;65.60
21803;BME280;18591;47.080;22.214;2023-01-15T07:01:42;99933.69;;;6.44;65.29
21803;BME280;18591;47.080;22.214;2023-01-15T07:03:44;99940.13;;;6.31;65.23
21803;BME280;18591;47.080;22.214;2023-01-15T07:05:46;99937.78;;;6.08;65.47
21803;BME280;18591;47.080;22.214;2023-01-15T07:07:48;99935.91;;;6.15;65.67
21803;BME280;18591;47.080;22.214;2023-01-15T07:09:50;99938.63;;;6.12;65.45
21803;BME280;18591;47.080;22.214;2023-01-15T07:11:52;99933.28;;;6.12;65.84
21803;BME280;18591;47.080;22.214;2023-01-15T07:13:54;99936.78;;;6.14;65.24
21803;BME280;18591;47.080;22.214;2023-01-15T07:16:06;99929.00;;;6.00;65.24
21803;BME280;18591;47.080;22.214;2023-01-15T07:18:28;99936.94;;;6.03;65.31
21803;BME280;18591;47.080;22.214;2023-01-15T07:20:31;99932.47;;;6.05;65.29
21803;BME280;18591;47.080;22.214;2023-01-15T07:22:33;99919.09;;;6.09;65.26
21803;BME280;18591;47.080;22.214;2023-01-15T07:24:35;99927.00;;;6.17;65.23
21803;BME280;18591;47.080;22.214;2023-01-15T07:26:38;99920.66;;;6.24;64.93
21803;BME280;18591;47.080;22.214;2023-01-15T07:28:40;99926.81;;;6.28;64.89
21803;BME280;18591;47.080;22.214;2023-01-15T07:30:42;99926.00;;;6.23;65.00
21803;BME280;18591;47.080;22.214;2023-01-15T07:32:44;99922.47;;;6.21;65.42
21803;BME280;18591;47.080;22.214;2023-01-15T07:34:46;99923.94;;;6.42;65.30
21803;BME280;18591;47.080;22.214;2023-01-15T07:36:48;99916.56;;;6.61;65.21
21803;BME280;18591;47.080;22.214;2023-01-15T07:38:50;99911.22;;;6.58;64.28
21803;BME280;18591;47.080;22.214;2023-01-15T07:40:55;99907.56;;;6.65;64.27
21803;BME280;18591;47.080;22.214;2023-01-15T07:43:15;99908.03;;;6.91;64.17
21803;BME280;18591;47.080;22.214;2023-01-15T07:45:38;99906.97;;;7.02;63.07
21803;BME280;18591;47.080;22.214;2023-01-15T07:48:09;99902.94;;;6.76;62.29
21803;BME280;18591;47.080;22.214;2023-01-15T07:50:29;99901.03;;;6.83;62.66
21803;BME280;18591;47.080;22.214;2023-01-15T07:52:31;99896.56;;;6.83;62.77
21803;BME280;18591;47.080;22.214;2023-01-15T07:54:33;99897.59;;;6.76;62.72
21803;BME280;18591;47.080;22.214;2023-01-15T07:56:35;99898.44;;;6.80;62.87
21803;BME280;18591;47.080;22.214;2023-01-15T07:58:37;99897.47;;;6.84;63.03
21803;BME280;18591;47.080;22.214;2023-01-15T08:00:39;99899.34;;;6.79;62.56
21803;BME280;18591;47.080;22.214;2023-01-15T08:02:42;99895.31;;;6.53;62.88
21803;BME280;18591;47.080;22.214;2023-01-15T08:04:46;99888.75;;;6.74;63.07
21803;BME280;18591;47.080;22.214;2023-01-15T08:06:48;99887.47;;;6.95;63.17
21803;BME280;18591;47.080;22.214;2023-01-15T08:08:50;99889.00;;;7.10;62.80
21803;BME280;18591;47.080;22.214;2023-01-15T08:10:52;99892.63;;;7.06;61.84
21803;BME280;18591;47.080;22.214;2023-01-15T08:13:23;99887.19;;;7.12;62.68
21803;BME280;18591;47.080;22.214;2023-01-15T08:15:44;99882.44;;;7.26;62.15
21803;BME280;18591;47.080;22.214;2023-01-15T08:17:48;99883.16;;;7.36;62.12
21803;BME280;18591;47.080;22.214;2023-01-15T08:19:50;99883.88;;;7.44;61.30
21803;BME280;18591;47.080;22.214;2023-01-15T08:21:52;99880.97;;;7.56;61.35
21803;BME280;18591;47.080;22.214;2023-01-15T08:23:54;99880.66;;;7.70;61.62
21803;BME280;18591;47.080;22.214;2023-01-15T08:25:59;99876.00;;;7.80;61.41
21803;BME280;18591;47.080;22.214;2023-01-15T08:28:02;99872.28;;;7.87;60.71
21803;BME280;18591;47.080;22.214;2023-01-15T08:30:05;99879.19;;;7.97;60.99
21803;BME280;18591;47.080;22.214;2023-01-15T08:32:08;99879.81;;;8.08;61.23
21803;BME280;18591;47.080;22.214;2023-01-15T08:34:10;99882.56;;;8.05;60.20
21803;BME280;18591;47.080;22.214;2023-01-15T08:36:12;99873.69;;;8.05;60.22
21803;BME280;18591;47.080;22.214;2023-01-15T08:38:16;99883.25;;;8.15;61.02
21803;BME280;18591;47.080;22.214;2023-01-15T08:40:18;99868.94;;;8.16;60.28
21803;BME280;18591;47.080;22.214;2023-01-15T08:42:20;99880.75;;;8.07;60.02
21803;BME280;18591;47.080;22.214;2023-01-15T08:44:23;99883.09;;;8.23;60.53
21803;BME280;18591;47.080;22.214;2023-01-15T08:46:25;99882.06;;;8.28;60.54
21803;BME280;18591;47.080;22.214;2023-01-15T08:48:29;99870.16;;;8.42;60.59
21803;BME280;18591;47.080;22.214;2023-01-15T08:50:32;99877.91;;;8.54;59.81
21803;BME280;18591;47.080;22.214;2023-01-15T08:52:34;99872.44;;;8.59;59.84
21803;BME280;18591;47.080;22.214;2023-01-15T08:54:36;99870.53;;;8.64;59.92
21803;BME280;18591;47.080;22.214;2023-01-15T08:56:39;99867.66;;;8.71;59.79
21803;BME280;18591;47.080;22.214;2023-01-15T08:58:41;99863.91;;;8.79;59.05
21803;BME280;18591;47.080;22.214;2023-01-15T09:00:43;99863.56;;;8.91;59.44
21803;BME280;18591;47.080;22.214;2023-01-15T09:02:45;99873.19;;;9.00;59.40
21803;BME280;18591;47.080;22.214;2023-01-15T09:04:50;99870.41;;;9.03;58.93
21803;BME280;18591;47.080;22.214;2023-01-15T09:06:53;99863.22;;;9.05;59.40
21803;BME280;18591;47.080;22.214;2023-01-15T09:08:55;99866.38;;;9.21;59.18
21803;BME280;18591;47.080;22.214;2023-01-15T09:10:59;99863.56;;;9.25;58.84
21803;BME280;18591;47.080;22.214;2023-01-15T09:13:02;99853.41;;;9.36;59.44
21803;BME280;18591;47.080;22.214;2023-01-15T09:15:05;99855.09;;;9.41;59.09
21803;BME280;18591;47.080;22.214;2023-01-15T09:17:10;99847.94;;;9.40;58.96
21803;BME280;18591;47.080;22.214;2023-01-15T09:19:12;99843.41;;;9.43;58.91
21803;BME280;18591;47.080;22.214;2023-01-15T09:21:14;99852.09;;;9.51;59.00
21803;BME280;18591;47.080;22.214;2023-01-15T09:23:16;99841.16;;;9.59;59.31
21803;BME280;18591;47.080;22.214;2023-01-15T09:25:18;99848.91;;;9.68;58.80
21803;BME280;18591;47.080;22.214;2023-01-15T09:27:20;99834.44;;;9.74;59.36
21803;BME280;18591;47.080;22.214;2023-01-15T09:29:22;99828.16;;;9.75;58.60
21803;BME280;18591;47.080;22.214;2023-01-15T09:31:25;99825.47;;;9.75;58.53
21803;BME280;18591;47.080;22.214;2023-01-15T09:33:29;99818.06;;;9.83;58.31
21803;BME280;18591;47.080;22.214;2023-01-15T09:35:31;99816.06;;;9.90;58.54
21803;BME280;18591;47.080;22.214;2023-01-15T09:37:33;99826.72;;;9.93;58.32
21803;BME280;18591;47.080;22.214;2023-01-15T09:39:39;99814.22;;;9.92;58.42
21803;BME280;18591;47.080;22.214;2023-01-15T09:47:03;99800.41;;;10.04;58.50
21803;BME280;18591;47.080;22.214;2023-01-15T09:49:49;99794.06;;;10.07;58.49
21803;BME280;18591;47.080;22.214;2023-01-15T09:52:11;99798.16;;;10.18;58.57
21803;BME280;18591;47.080;22.214;2023-01-15T09:56:23;99776.16;;;10.35;58.52
21803;BME280;18591;47.080;22.214;2023-01-15T09:58:35;99788.63;;;10.38;58.35
21803;BME280;18591;47.080;22.214;2023-01-15T10:00:40;99777.81;;;10.39;57.57
21803;BME280;18591;47.080;22.214;2023-01-15T10:02:49;99773.22;;;10.43;57.34
21803;BME280;18591;47.080;22.214;2023-01-15T10:04:56;99777.63;;;10.45;55.54
21803;BME280;18591;47.080;22.214;2023-01-15T10:07:05;99771.19;;;10.50;56.41
21803;BME280;18591;47.080;22.214;2023-01-15T10:09:16;99771.53;;;10.65;55.73
21803;BME280;18591;47.080;22.214;2023-01-15T10:11:30;99772.25;;;10.71;55.83
21803;BME280;18591;47.080;22.214;2023-01-15T10:14:19;99755.97;;;10.75;55.13
21803;BME280;18591;47.080;22.214;2023-01-15T10:16:30;99755.69;;;10.83;55.03
21803;BME280;18591;47.080;22.214;2023-01-15T10:18:34;99763.59;;;10.87;55.76
21803;BME280;18591;47.080;22.214;2023-01-15T10:25:15;99759.13;;;10.86;55.49
21803;BME280;18591;47.080;22.214;2023-01-15T10:27:21;99751.78;;;10.92;54.98
21803;BME280;18591;47.080;22.214;2023-01-15T10:29:48;99753.69;;;10.89;53.79
21803;BME280;18591;47.080;22.214;2023-01-15T10:31:53;99748.13;;;10.94;54.33
21803;BME280;18591;47.080;22.214;2023-01-15T10:44:22;99713.94;;;10.98;54.58
21803;BME280;18591;47.080;22.214;2023-01-15T10:46:30;99715.69;;;10.99;54.50
21803;BME280;18591;47.080;22.214;2023-01-15T10:48:40;99706.88;;;10.95;53.29
21803;BME280;18591;47.080;22.214;2023-01-15T10:50:43;99700.38;;;11.01;54.75
21803;BME280;18591;47.080;22.214;2023-01-15T10:53:08;99706.00;;;10.95;53.72
21803;BME280;18591;47.080;22.214;2023-01-15T10:55:26;99704.06;;;10.98;53.15
21803;BME280;18591;47.080;22.214;2023-01-15T10:59:50;99689.50;;;11.04;52.99
21803;BME280;18591;47.080;22.214;2023-01-15T11:01:58;99675.78;;;11.11;54.12
21803;BME280;18591;47.080;22.214;2023-01-15T11:04:00;99680.47;;;11.06;54.74
21803;BME280;18591;47.080;22.214;2023-01-15T11:06:04;99659.78;;;11.08;54.86
21803;BME280;18591;47.080;22.214;2023-01-15T11:08:14;99665.19;;;11.07;54.56
21803;BME280;18591;47.080;22.214;2023-01-15T11:10:42;99659.47;;;11.16;54.93
21803;BME280;18591;47.080;22.214;2023-01-15T11:15:15;99652.09;;;11.21;54.40
21803;BME280;18591;47.080;22.214;2023-01-15T11:17:45;99648.28;;;11.27;55.73
21803;BME280;18591;47.080;22.214;2023-01-15T11:22:28;99631.94;;;11.33;54.36
21803;BME280;18591;47.080;22.214;2023-01-15T11:24:31;99621.28;;;11.30;54.67
21803;BME280;18591;47.080;22.214;2023-01-15T11:26:33;99621.34;;;11.28;53.93
21803;BME280;18591;47.080;22.214;2023-01-15T11:28:38;99623.78;;;11.34;53.97
21803;BME280;18591;47.080;22.214;2023-01-15T11:30:42;99614.81;;;11.36;54.47
21803;BME280;18591;47.080;22.214;2023-01-15T11:32:54;99614.72;;;11.37;53.48
21803;BME280;18591;47.080;22.214;2023-01-15T11:37:09;99618.78;;;11.47;53.76
21803;BME280;18591;47.080;22.214;2023-01-15T11:39:22;99615.22;;;11.47;52.79
21803;BME280;18591;47.080;22.214;2023-01-15T11:43:57;99601.78;;;11.47;52.08
21803;BME280;18591;47.080;22.214;2023-01-15T11:46:24;99599.22;;;11.44;52.70
21803;BME280;18591;47.080;22.214;2023-01-15T11:48:47;99593.72;;;11.47;53.64
21803;BME280;18591;47.080;22.214;2023-01-15T11:51:09;99589.34;;;11.44;54.69
21803;BME280;18591;47.080;22.214;2023-01-15T11:53:20;99587.66;;;11.42;54.17
21803;BME280;18591;47.080;22.214;2023-01-15T11:55:25;99598.97;;;11.50;54.38